Best, Netherlands
Current Conditions -  °F | °C
As of 5:21 PM on Wednesday 28 Jan 2015 (Local Time) from EHEH Reporting Station
Light Rain Light Rain  
Wind Chill: 29°   Ceiling: 1900
Heat Index: 37°   Visibility: 6mi
Dew Point: 36°   Wind: 13mph
Humidity: 93%   Direction: 280°W
Pressure: 29.44"   Gusts: NA
Location:  51.51°N, 5.39°E
Report Text: EHEH 281621Z AUTO 28011KT 9999 -RA FEW009 SCT016 BKN019 03/02 Q0997 RETSRA WHT 29020G30KT 5000 RA -SHRA SCT010 FEWCB012 BKN020
Loading
Personal Weather Stations






























Interactive Weather Map New forecast layout! Learn more

10-Day Weather Forecast

Advertisements
Track Severe Weather on mobile